Latest Weather Observations for Launceston Airport

IDT60801

Issued at 11:32 am EST Friday 30 September 2016 (issued every 30 minutes, with the page automatically refreshed every 10 minutes)

About weather observations | Map of weather stations | Latest weather observations for TAS | Other Formats
Station Details ID: 091311 Name: LAUNCESTON AIRPORT Lat: -41.55 Lon: 147.21 Height: 166.9 m
Data from the previous 72 hours. | See also: Recent months at Launceston Airport
Date/Time
EST
Temp
°C
App
Temp
°C
Dew
Point
°C
Rel
Hum
%
Delta-T
°C
Wind Press
QNH
hPa
Press
MSL
hPa
Rain since
9am
mm
Dir  Spd
km/h
Gust
km/h
Spd
kts
Gust
kts
30/11:30am 10.5 4.7 8.1 85 1.2 NNW 28 37 15 20 989.9 990.0 0.0
30/11:11am 10.0 4.0 6.9 81 1.5 NNW 28 39 15 21 990.0 990.1 0.0
30/11:00am 10.3 3.9 8.4 88 0.9 NNW 32 41 17 22 989.7 989.8 0.0
30/10:30am 9.6 4.1 7.7 88 0.9 NNW 26 32 14 17 989.6 989.7 0.0
30/10:22am 10.0 5.1 8.6 91 0.7 NNW 24 30 13 16 989.7 989.8 0.0
30/10:00am 9.3 5.1 8.2 93 0.5 NNW 20 30 11 16 989.8 989.9 0.0
30/09:33am 8.8 4.8 8.4 97 0.2 N 19 24 10 13 989.7 989.8 0.0
30/09:30am 8.8 4.8 8.4 97 0.2 N 19 24 10 13 989.7 989.8 0.0
30/09:00am 8.6 5.3 8.2 97 0.2 N 15 17 8 9 989.6 989.7 18.0
30/08:30am 8.2 5.2 7.8 97 0.2 N 13 19 7 10 989.7 989.8 17.8
30/08:15am 8.0 5.7 7.6 97 0.2 NNE 9 15 5 8 989.8 989.9 17.8
30/08:00am 8.2 6.9 7.8 97 0.2 NW 4 11 2 6 989.8 989.9 17.8
30/07:45am 8.1 6.2 7.7 97 0.2 WNW 7 15 4 8 989.6 989.7 17.6
30/07:30am 7.9 6.0 7.5 97 0.2 NNW 7 9 4 5 989.8 989.9 17.4
30/07:23am 8.0 6.7 7.6 97 0.2 WNW 4 7 2 4 989.8 989.9 17.2
30/07:08am 7.9 6.2 7.5 97 0.2 WNW 6 7 3 4 990.0 990.1 16.6
30/07:00am 7.8 5.5 7.4 97 0.2 NW 9 9 5 5 990.0 990.1 16.4
30/06:30am 7.3 5.3 6.9 97 0.2 NNW 7 9 4 5 990.3 990.4 15.8
30/06:20am 7.4 5.6 7.0 97 0.2 N 6 7 3 4 990.0 990.1 15.8
30/06:06am 7.5 5.7 7.1 97 0.2 NNE 6 7 3 4 990.1 990.2 15.6
30/06:00am 7.5 6.1 7.1 97 0.2 NNE 4 6 2 3 990.1 990.2 15.4
30/05:36am 7.6 5.2 7.2 97 0.2 W 9 11 5 6 989.8 989.9 15.4
30/05:35am 7.7 5.4 7.3 97 0.2 W 9 11 5 6 989.8 989.9 15.4
30/05:30am 7.7 5.4 7.3 97 0.2 W 9 13 5 7 989.9 990.0 15.4
30/05:00am 7.7 5.4 7.3 97 0.2 SW 9 13 5 7 989.9 990.0 15.4
30/04:57am 7.7 5.4 7.3 97 0.2 SW 9 13 5 7 990.0 990.1 15.4
30/04:30am 7.8 5.5 7.4 97 0.2 SSW 9 9 5 5 989.9 990.0 15.4
30/04:00am 7.7 7.1 7.3 97 0.2 CALM 0 0 0 0 990.1 990.2 15.4
30/03:30am 7.3 6.6 6.9 97 0.2 CALM 0 6 0 3 990.5 990.6 15.4
30/03:03am 7.6 5.6 7.2 97 0.2 SW 7 9 4 5 990.3 990.4 15.4
30/03:00am 7.5 5.5 7.1 97 0.2 SW 7 9 4 5 990.4 990.5 15.4
30/02:48am 7.5 5.5 7.1 97 0.2 S 7 9 4 5 990.7 990.8 15.4
30/02:44am 7.3 5.3 6.9 97 0.2 S 7 9 4 5 990.8 990.9 15.4
30/02:30am 7.5 5.5 7.1 97 0.2 SSW 7 9 4 5 990.9 991.0 15.4
30/02:00am 7.5 5.7 7.1 97 0.2 SW 6 7 3 4 991.2 991.3 15.4
30/01:44am 7.3 5.3 6.9 97 0.2 SSW 7 9 4 5 991.5 991.6 15.4
30/01:30am 7.5 5.7 7.1 97 0.2 SSW 6 9 3 5 991.4 991.5 15.4
30/01:13am 7.6 5.6 7.2 97 0.2 SSW 7 11 4 6 991.7 991.8 15.4
30/01:00am 7.2 6.0 6.6 96 0.3 SSW 2 11 1 6 992.1 992.3 15.4
30/12:40am 7.4 6.7 6.8 96 0.3 CALM 0 0 0 0 992.4 992.6 15.4
30/12:30am 8.0 6.3 7.4 96 0.3 SSW 6 9 3 5 992.3 992.5 15.4
30/12:00am 7.9 5.9 7.3 96 0.3 S 7 9 4 5 992.1 992.3 15.4
 
Date/Time
EST
Temp
°C
App
Temp
°C
Dew
Point
°C
Rel
Hum
%
Delta-T
°C
Wind Press
QNH
hPa
Press
MSL
hPa
Rain since
9am
mm
Dir  Spd
km/h
Gust
km/h
Spd
kts
Gust
kts
29/11:30pm 8.2 7.3 7.6 96 0.3 SSE 2 6 1 3 992.0 992.2 15.4
29/11:20pm 8.1 6.4 7.5 96 0.3 SSE 6 7 3 4 992.1 992.3 15.4
29/11:01pm 8.1 6.2 7.5 96 0.3 SSE 7 9 4 5 992.2 992.4 15.4
29/11:00pm 8.1 6.2 7.5 96 0.3 S 7 9 4 5 992.3 992.5 15.4
29/10:30pm 8.4 6.7 7.6 95 0.4 ESE 6 9 3 5 992.6 992.8 15.4
29/10:13pm 8.6 6.4 7.8 95 0.4 ENE 9 11 5 6 992.7 992.9 15.4
29/10:00pm 9.0 8.1 7.9 93 0.5 WSW 2 11 1 6 992.4 992.6 15.4
29/09:30pm 9.4 7.4 8.5 94 0.4 WNW 9 11 5 6 992.3 992.5 15.4
29/09:00pm 9.2 7.5 8.4 95 0.4 WNW 7 11 4 6 992.3 992.5 15.4
29/08:30pm 9.0 7.3 8.4 96 0.3 N 7 9 4 5 992.2 992.4 15.4
29/08:00pm 8.9 6.8 8.1 95 0.4 N 9 9 5 5 991.7 991.8 15.4
29/07:30pm 9.3 5.2 8.5 95 0.4 N 20 28 11 15 991.7 991.8 15.2
29/07:15pm 9.4 4.1 8.5 94 0.4 N 26 33 14 18 991.5 991.6 14.6
29/07:02pm 9.7 3.7 8.5 92 0.6 N 30 37 16 20 991.3 991.4 14.0
29/07:00pm 9.8 4.5 8.6 92 0.6 N 26 37 14 20 991.3 991.4 13.8
29/06:54pm 10.2 8.3 9.0 92 0.6 W 9 37 5 20 991.1 991.2 13.2
29/06:48pm 10.6 10.4 9.2 91 0.7 CALM 0 2 0 1 990.4 990.5 11.6
29/06:30pm 10.9 9.0 9.2 89 0.9 S 9 11 5 6 989.6 989.7 10.8
29/06:00pm 10.9 9.0 9.0 88 1.0 SSE 9 11 5 6 989.6 989.7 9.8
29/05:30pm 11.3 9.4 8.9 85 1.2 E 9 17 5 9 989.6 989.7 8.6
29/05:00pm 11.7 6.4 8.6 81 1.6 E 26 39 14 21 989.2 989.3 8.2
29/04:30pm 11.9 5.8 8.2 78 1.8 E 30 46 16 25 988.9 989.0 7.6
29/04:08pm 12.2 6.6 8.7 79 1.8 ESE 28 48 15 26 989.3 989.4 7.4
29/04:00pm 12.2 7.8 9.0 81 1.6 ESE 22 32 12 17 989.3 989.4 7.4
29/03:30pm 12.3 6.6 8.4 77 1.9 E 28 39 15 21 989.7 989.8 7.0
29/03:00pm 12.2 5.6 7.9 75 2.1 ENE 32 50 17 27 990.1 990.2 6.8
29/02:53pm 12.7 7.0 8.2 74 2.2 ENE 28 50 15 27 990.3 990.4 6.8
29/02:30pm 12.3 8.3 8.4 77 1.9 NE 19 28 10 15 990.5 990.6 6.6
29/02:00pm 12.0 7.1 8.3 78 1.9 NE 24 35 13 19 991.0 991.1 6.2
29/01:30pm 12.5 6.7 9.3 81 1.6 NNE 30 39 16 21 992.0 992.2 5.8
29/01:14pm 12.9 8.4 9.9 82 1.6 NNE 24 39 13 21 992.0 992.2 5.2
29/01:00pm 12.9 10.3 10.6 86 1.2 NE 15 20 8 11 992.1 992.3 5.0
29/12:58pm 13.0 10.7 10.5 85 1.3 NE 13 20 7 11 992.0 992.2 4.6
29/12:55pm 13.2 10.9 10.6 84 1.4 ENE 13 20 7 11 992.0 992.2 4.4
29/12:35pm 13.3 11.1 10.8 85 1.3 NNE 13 19 7 10 991.6 991.7 2.6
29/12:30pm 13.6 11.7 10.6 82 1.6 NE 11 19 6 10 991.9 992.0 2.0
29/12:00pm 13.6 11.8 11.0 84 1.4 ENE 11 15 6 8 992.0 992.2 1.0
29/11:30am 14.6 10.4 9.8 73 2.5 NNE 22 32 12 17 992.2 992.4 0.6
29/11:04am 15.0 9.7 9.8 71 2.7 NNE 28 46 15 25 992.5 992.7 0.6
29/11:00am 15.0 9.6 9.4 69 2.9 NE 28 43 15 23 992.6 992.8 0.6
29/10:30am 13.7 10.0 10.3 80 1.8 NNE 20 35 11 19 993.6 993.7 0.6
29/10:00am 14.2 12.4 11.0 81 1.7 E 11 15 6 8 993.9 994.0 0.0
29/09:30am 13.5 10.8 10.5 82 1.6 E 15 20 8 11 994.4 994.5 0.0
29/09:00am 13.0 8.3 9.4 79 1.9 ENE 24 39 13 21 994.9 995.0 0.0
29/08:50am 13.8 8.3 9.0 73 2.5 ENE 28 37 15 20 995.1 995.2 0.0
29/08:30am 12.8 11.8 8.7 76 2.1 W 4 9 2 5 995.3 995.4 0.0
29/08:00am 12.3 10.4 9.0 80 1.7 SW 9 11 5 6 995.8 995.9 0.0
29/07:30am 13.4 11.9 8.3 71 2.6 ENE 6 11 3 6 996.0 996.1 0.0
29/07:00am 12.9 11.1 8.0 72 2.5 ENE 7 17 4 9 996.2 996.3 0.0
29/06:30am 12.6 10.3 7.5 71 2.5 ESE 9 17 5 9 996.7 996.8 0.0
29/06:00am 11.5 8.0 7.4 76 2.0 SSE 15 20 8 11 996.7 996.8 0.0
29/05:30am 9.3 5.6 6.2 81 1.4 SSE 15 20 8 11 997.1 997.3 0.0
29/05:00am 8.7 4.9 5.8 82 1.3 S 15 17 8 9 998.1 998.3 0.0
29/04:30am 8.5 5.8 5.8 83 1.2 SSW 9 17 5 9 998.6 998.8 0.0
29/04:00am 8.3 3.5 5.4 82 1.3 S 20 26 11 14 998.8 999.0 0.0
29/03:30am 7.9 3.3 5.4 84 1.1 S 19 24 10 13 999.1 999.3 0.0
29/03:00am 8.0 4.0 5.1 82 1.3 S 15 30 8 16 999.9 1000.0 0.0
29/02:30am 8.3 4.0 5.4 82 1.3 SSW 17 20 9 11 1000.5 1000.6 0.0
29/02:00am 8.0 4.1 5.5 84 1.1 SW 15 17 8 9 1001.3 1001.4 0.0
29/01:30am 8.1 4.6 5.4 83 1.2 SW 13 17 7 9 1002.3 1002.5 0.0
29/01:00am 8.0 4.2 5.6 85 1.1 SW 15 17 8 9 1002.8 1003.0 0.0
29/12:30am 8.2 4.1 6.0 86 1.0 S 17 20 9 11 1003.2 1003.4 0.0
29/12:00am 8.0 4.6 6.0 87 0.9 SW 13 17 7 9 1003.7 1003.9 0.0
 
Date/Time
EST
Temp
°C
App
Temp
°C
Dew
Point
°C
Rel
Hum
%
Delta-T
°C
Wind Press
QNH
hPa
Press
MSL
hPa
Rain since
9am
mm
Dir  Spd
km/h
Gust
km/h
Spd
kts
Gust
kts
28/11:30pm 7.9 4.6 6.4 90 0.7 SW 13 19 7 10 1004.0 1004.2 0.0
28/11:00pm 7.2 4.0 5.3 88 0.9 SSW 11 15 6 8 1004.0 1004.2 0.0
28/10:30pm 7.6 4.4 5.1 84 1.1 SW 11 15 6 8 1004.5 1004.7 0.0
28/10:00pm 7.6 4.7 4.9 83 1.2 SW 9 11 5 6 1004.9 1005.1 0.0
28/09:30pm 8.2 5.9 5.0 80 1.4 N 6 9 3 5 1005.2 1005.4 0.0
28/09:00pm 7.5 4.2 4.5 81 1.3 NNW 11 13 6 7 1005.8 1005.9 0.0
28/08:30pm 8.5 5.4 5.4 81 1.4 NW 11 13 6 7 1005.9 1006.0 0.0
28/08:00pm 8.0 4.0 5.1 82 1.3 NNW 15 19 8 10 1006.4 1006.5 0.0
28/07:30pm 8.2 4.2 4.8 79 1.5 NNW 15 22 8 12 1006.2 1006.3 0.0
28/07:00pm 9.6 5.1 6.0 78 1.7 N 19 26 10 14 1005.8 1005.9 0.0
28/06:30pm 9.8 5.0 5.8 76 1.9 NNW 20 28 11 15 1005.2 1005.4 0.0
28/06:00pm 10.6 5.8 5.8 72 2.2 NNW 20 26 11 14 1005.0 1005.2 0.0
28/05:30pm 11.9 6.0 5.8 66 2.9 NNW 26 32 14 17 1005.0 1005.2 0.0
28/05:00pm 13.6 7.4 6.0 60 3.7 NNW 28 33 15 18 1005.2 1005.4 0.0
28/04:30pm 13.6 8.4 5.7 59 3.8 NNW 22 32 12 17 1004.9 1005.1 0.0
28/04:00pm 14.8 10.4 7.6 62 3.6 NNW 20 26 11 14 1004.5 1004.7 0.0
28/03:30pm 15.2 10.3 8.4 64 3.5 NNW 24 32 13 17 1004.8 1005.0 0.0
28/03:00pm 13.9 8.7 7.4 65 3.2 NNW 24 30 13 16 1005.5 1005.7 0.0
28/02:30pm 15.4 11.0 7.4 59 4.0 NNW 20 28 11 15 1006.1 1006.2 0.0
28/02:00pm 14.7 9.6 7.5 62 3.6 NNW 24 30 13 16 1006.4 1006.5 0.0
28/01:30pm 14.9 10.1 5.7 54 4.4 NW 20 28 11 15 1006.8 1006.9 0.0
28/01:00pm 14.9 10.3 5.4 53 4.6 NW 19 26 10 14 1007.1 1007.3 0.0
28/12:30pm 14.9 10.0 4.9 51 4.7 NNW 20 28 11 15 1007.6 1007.8 0.0
28/12:00pm 15.2 10.0 2.7 43 5.7 NNW 19 28 10 15 1008.2 1008.4 0.0
28/11:30am 14.9 10.3 1.4 40 5.9 NNW 15 20 8 11 1008.5 1008.7 0.0
28/11:00am 14.9 10.2 3.1 45 5.4 NW 17 20 9 11 1008.9 1009.1 0.0
28/10:30am 14.3 9.7 3.5 48 4.9 NNW 17 24 9 13 1009.1 1009.3 0.0
28/10:00am 14.0 9.5 4.3 52 4.5 NNW 17 24 9 13 1009.6 1009.8 0.0
28/09:30am 12.8 8.6 5.9 63 3.3 NNW 17 22 9 12 1009.7 1009.9 0.0
28/09:03am 12.4 8.0 6.5 67 2.8 NNW 19 24 10 13 1009.9 1010.1 0.0
28/09:00am 12.3 8.0 6.8 69 2.7 NNW 19 24 10 13 1009.9 1010.1 0.0
28/08:51am 12.1 9.1 7.8 75 2.1 NNW 13 19 7 10 1010.0 1010.2 0.0
28/08:48am 12.0 9.2 8.5 79 1.7 NNW 13 17 7 9 1010.0 1010.2 0.0
28/08:30am 10.9 8.5 8.8 87 1.0 NNW 11 15 6 8 1010.2 1010.4 0.0
28/08:00am 9.7 7.9 8.0 89 0.8 NW 7 13 4 7 1010.4 1010.6 0.0
28/07:30am 9.2 7.0 7.8 91 0.7 WNW 9 13 5 7 1010.3 1010.5 0.0
28/07:00am 8.9 6.7 7.8 93 0.5 NW 9 13 5 7 1010.3 1010.5 0.0
28/06:30am 8.7 5.7 7.6 93 0.5 NW 13 15 7 8 1010.0 1010.2 0.0
28/06:00am 8.4 5.4 7.8 96 0.3 NW 13 17 7 9 1009.7 1009.9 0.0
28/05:30am 8.3 4.8 7.1 92 0.6 NW 15 20 8 11 1009.4 1009.6 0.0
28/05:00am 7.0 3.9 5.5 90 0.7 NNW 11 13 6 7 1009.2 1009.4 0.0
28/04:30am 7.4 4.8 5.9 90 0.7 NW 9 9 5 5 1009.1 1009.3 0.0
28/04:27am 7.5 4.9 6.0 90 0.7 NW 9 9 5 5 1009.1 1009.3 0.0
28/04:00am 6.7 3.9 5.2 90 0.7 N 9 11 5 6 1009.0 1009.2 0.0
28/03:30am 7.8 5.6 6.4 91 0.6 N 7 9 4 5 1009.2 1009.4 0.0
28/03:00am 7.4 4.8 6.2 92 0.6 N 9 13 5 7 1009.0 1009.2 0.0
28/02:30am 7.6 5.1 6.4 92 0.6 N 9 11 5 6 1009.0 1009.2 0.0
28/02:00am 7.8 4.2 6.9 94 0.4 NNW 15 19 8 10 1009.1 1009.3 0.0
28/01:30am 7.6 4.1 7.2 97 0.2 N 15 19 8 10 1009.2 1009.4 0.0
28/01:19am 7.4 4.2 7.0 97 0.2 N 13 19 7 10 1009.1 1009.3 0.0
28/01:00am 6.1 2.2 5.5 96 0.3 N 15 17 8 9 1009.2 1009.4 0.0
28/12:49am 5.8 2.2 5.2 96 0.3 NNE 13 17 7 9 1009.0 1009.2 0.0
28/12:30am 5.2 1.9 4.3 94 0.4 N 11 13 6 7 1009.1 1009.3 0.0
28/12:00am 6.3 3.2 5.6 95 0.3 N 11 15 6 8 1009.0 1009.2 0.0
 
Date/Time
EST
Temp
°C
App
Temp
°C
Dew
Point
°C
Rel
Hum
%
Delta-T
°C
Wind Press
QNH
hPa
Press
MSL
hPa
Rain since
9am
mm
Dir  Spd
km/h
Gust
km/h
Spd
kts
Gust
kts
27/11:30pm 5.9 2.3 5.0 94 0.4 NNW 13 15 7 8 1008.9 1009.1 0.0
27/11:06pm 6.6 3.5 5.6 93 0.4 NNW 11 13 6 7 1008.8 1009.0 0.0
27/11:00pm 6.1 2.4 4.6 90 0.7 N 13 13 7 7 1008.9 1009.1 0.0
27/10:30pm 7.9 4.2 6.2 89 0.8 NNE 15 17 8 9 1008.8 1009.0 0.0
27/10:00pm 8.3 4.2 6.1 86 1.0 N 17 20 9 11 1008.8 1009.0 0.0
27/09:30pm 9.3 5.4 6.9 85 1.1 N 17 22 9 12 1008.9 1009.1 0.0
27/09:00pm 8.9 4.3 6.7 86 1.0 N 20 24 11 13 1008.9 1009.1 0.0
27/08:49pm 8.9 4.3 6.5 85 1.1 N 20 24 11 13 1008.9 1009.1 0.0
27/08:30pm 8.6 3.9 6.2 85 1.1 N 20 24 11 13 1008.7 1008.9 0.0
27/08:00pm 8.3 3.7 5.8 84 1.1 N 19 24 10 13 1008.7 1008.9 0.0
27/07:30pm 8.8 4.2 6.3 84 1.2 N 20 26 11 14 1008.7 1008.9 0.0
27/07:00pm 9.5 4.9 6.6 82 1.4 N 20 28 11 15 1008.4 1008.6 0.0
27/06:30pm 10.0 5.0 6.3 78 1.7 NNW 22 30 12 16 1008.2 1008.4 0.0
27/06:00pm 10.7 5.3 6.3 74 2.1 NNW 24 30 13 16 1007.9 1008.1 0.0
27/05:30pm 11.8 5.7 6.7 71 2.4 NNW 28 37 15 20 1007.6 1007.8 0.0
27/05:00pm 12.3 5.9 7.0 70 2.6 NNW 30 39 16 21 1007.3 1007.5 0.0
27/04:30pm 13.4 6.5 6.5 63 3.3 NNW 32 39 17 21 1006.9 1007.0 0.0
27/04:00pm 14.4 8.0 5.2 54 4.4 NNW 28 37 15 20 1006.7 1006.8 0.0
27/03:30pm 14.9 8.6 5.7 54 4.4 NNW 28 35 15 19 1006.6 1006.7 0.0
27/03:00pm 15.7 10.4 7.0 56 4.3 NNW 24 32 13 17 1006.7 1006.8 0.0
27/02:30pm 13.9 9.2 6.0 59 3.8 NNW 20 28 11 15 1007.0 1007.2 0.0
27/02:00pm 15.8 11.5 7.1 56 4.3 NNW 19 35 10 19 1007.1 1007.3 0.0
27/01:30pm 15.2 11.6 5.1 51 4.8 N 13 26 7 14 1007.2 1007.4 0.0
27/01:00pm 15.1 11.4 6.1 55 4.4 N 15 20 8 11 1007.3 1007.5 0.0
27/12:30pm 14.2 11.4 5.0 54 4.3 NNE 9 13 5 7 1007.5 1007.7 0.0
27/12:00pm 13.4 9.8 4.8 56 4.0 NNW 13 17 7 9 1007.9 1008.1 0.0

Other Formats:

Comma delimited format used in spreadsheet applications
http://www.bom.gov.au/fwo/IDT60801/IDT60801.95966.axf

JavaScript Object Notation format (JSON) in row-major order
http://www.bom.gov.au/fwo/IDT60801/IDT60801.95966.json